Perryville, MO

9:59 AM CST on December 06, 2016 (GMT -0600)
Scott's Backyard | | Change Station

Elev 650 ft 37.89 °N, 89.81 °W | Updated 3 minutes ago

Overcast
Overcast
41.3 °F
Feels Like 41 °F
N
3.0
Wind Variable Wind from NW
Gusts 7.0 mph

Today
High -- | Low -- °F
--% Chance of Precip.
Yesterday
High -- | Low -- °F
Precip. -- in
Pressure 29.86 in
Visibility 10.0 miles
Clouds Overcast 1000 ft
Windchill 41 °F
Dew Point 37 °F
Humidity 86%
Rainfall 0.05 in
Snow Depth Not available.
7:00 AM 4:40 PM
Waxing Crescent, 43% visible
METAR KSAR 061555Z AUTO 32011G18KT 10SM OVC010 04/02 A2986 RMK AO2 T00350015
Pressure 29.86 in
Visibility 10.0 miles
Clouds Overcast 1000 ft
Windchill 41 °F
Dew Point 37 °F
Humidity 86%
Rainfall 0.05 in
Snow Depth Not available.
7:00 AM 4:40 PM
Waxing Crescent, 43% visible
METAR KSAR 061555Z AUTO 32011G18KT 10SM OVC010 04/02 A2986 RMK AO2 T00350015

10-Day Weather Forecast

Almanac

Astronomy

Dec. 06, 2016 Rise Set
Actual Time
Civil Twilight
Nautical Twilight
Astronomical Twilight
Moon
Length of Visible Light
Length of Day
Tomorrow will be .
, % of the Moon is Illuminated

Today's Extremes

State Highs State Lows

Community

WunderPhotos

Upload Photos

1,955,959 photos uploaded!

WunderBlog® & News

Nearby

Air Quality

  Air Quality AQ Index Pollutant
Not available.

Snow Depth

Station Depth Elevation

Earthquake Activity

City Distance Mag. Time & Date
Minimum magnitude displayed is 2.5.

Coastal Water Temperatures

Place Temperature

Stations

Nearby Weather Stations

Station Location Temp. Windchill Dew Point Humidity Wind Precip. Elev Updated Type
                   

Watches & Warnings

There are currently no watches in effect.